createdAt,value
2022-10-21T00:01:06.213Z,22.95
2022-10-21T00:03:33.160Z,19.08
2022-10-21T00:06:05.035Z,28.73
2022-10-21T00:08:35.723Z,23.20
2022-10-21T00:11:08.093Z,28.63
2022-10-21T00:13:36.882Z,21.50
2022-10-21T00:16:08.425Z,26.52
2022-10-21T00:18:38.191Z,27.85
2022-10-21T00:23:49.967Z,24.83
2022-10-21T00:26:18.453Z,26.33
2022-10-21T00:28:46.850Z,30.17
2022-10-21T00:31:17.629Z,24.38
2022-10-21T00:33:45.113Z,29.77
2022-10-21T00:36:15.715Z,24.38
2022-10-21T00:38:46.786Z,32.08
2022-10-21T00:41:17.706Z,25.30
2022-10-21T00:44:02.219Z,25.65
2022-10-21T00:46:42.240Z,30.15
2022-10-21T00:49:29.227Z,25.75
2022-10-21T00:52:00.493Z,25.98
2022-10-21T00:54:30.196Z,28.38
2022-10-21T00:56:58.805Z,22.92
2022-10-21T00:59:31.466Z,23.80
2022-10-21T01:02:03.224Z,27.80
2022-10-21T01:04:34.627Z,26.88
2022-10-21T01:07:03.563Z,31.13
2022-10-21T01:09:36.590Z,28.00
2022-10-21T01:12:09.714Z,29.52
2022-10-21T01:14:49.937Z,27.58
2022-10-21T01:17:45.083Z,31.73
2022-10-21T01:20:56.670Z,27.73
2022-10-21T01:23:57.466Z,27.42
2022-10-21T01:26:33.864Z,26.45
2022-10-21T01:29:22.954Z,27.05
2022-10-21T01:31:57.165Z,24.00
2022-10-21T01:34:27.485Z,26.90
2022-10-21T01:37:32.975Z,23.65
2022-10-21T01:40:31.827Z,28.30
2022-10-21T01:43:22.891Z,24.20
2022-10-21T01:45:56.944Z,29.60
2022-10-21T01:48:29.540Z,29.13
2022-10-21T01:51:07.527Z,24.60
2022-10-21T01:53:48.079Z,28.10
2022-10-21T01:56:16.838Z,26.15
2022-10-21T01:58:47.465Z,25.17
2022-10-21T02:01:16.636Z,23.63
2022-10-21T02:03:49.820Z,29.25
2022-10-21T02:06:18.184Z,26.90
2022-10-21T02:08:45.350Z,25.80
2022-10-21T02:11:12.857Z,32.55
2022-10-21T02:13:52.638Z,29.98
2022-10-21T02:16:25.211Z,25.38
2022-10-21T02:18:53.579Z,20.48
2022-10-21T02:21:27.725Z,23.73
2022-10-21T02:24:11.726Z,27.80
2022-10-21T02:26:39.527Z,25.42
2022-10-21T02:29:07.544Z,25.60
2022-10-21T02:31:50.719Z,26.60
2022-10-21T02:34:20.209Z,25.83
2022-10-21T02:37:01.334Z,21.15
2022-10-21T02:39:35.866Z,24.05
2022-10-21T02:42:18.706Z,22.60
2022-10-21T02:44:45.632Z,22.73
2022-10-21T02:47:12.565Z,24.10
2022-10-21T02:49:39.789Z,24.55
2022-10-21T02:52:06.719Z,21.98
2022-10-21T02:54:33.489Z,21.05
2022-10-21T02:57:00.231Z,22.50
2022-10-21T02:59:28.577Z,27.90
2022-10-21T03:01:56.048Z,26.25
2022-10-21T03:04:25.438Z,21.75
2022-10-21T03:06:53.703Z,23.50
2022-10-21T03:09:20.768Z,26.35
2022-10-21T03:11:47.597Z,20.33
2022-10-21T03:14:15.158Z,19.33
2022-10-21T03:16:43.340Z,23.20
2022-10-21T03:19:12.256Z,23.67
2022-10-21T03:21:39.944Z,25.30
2022-10-21T03:24:15.553Z,31.00
2022-10-21T03:27:01.287Z,23.55
2022-10-21T03:29:30.311Z,26.27
2022-10-21T03:32:01.805Z,20.58
2022-10-21T03:34:29.270Z,26.85
2022-10-21T03:37:00.717Z,23.70
2022-10-21T03:39:31.468Z,21.05
2022-10-21T03:41:59.451Z,21.17
2022-10-21T03:44:26.717Z,22.05
2022-10-21T03:46:54.012Z,24.67
2022-10-21T03:49:22.427Z,21.85
2022-10-21T03:51:53.286Z,23.40
2022-10-21T03:54:21.371Z,22.23
2022-10-21T03:56:50.004Z,22.13
2022-10-21T03:59:17.511Z,19.95
2022-10-21T04:01:45.435Z,21.00
2022-10-21T04:04:13.019Z,21.55
2022-10-21T04:06:40.420Z,19.77
2022-10-21T04:09:08.803Z,17.88
2022-10-21T04:11:38.343Z,23.15
2022-10-21T04:14:05.269Z,21.90
2022-10-21T04:16:33.999Z,22.65
2022-10-21T04:19:01.285Z,21.25
2022-10-21T04:21:29.417Z,15.40
2022-10-21T04:23:56.381Z,15.85
2022-10-21T04:26:23.878Z,17.10
2022-10-21T04:28:51.902Z,17.42
2022-10-21T04:31:21.566Z,20.73
2022-10-21T04:33:49.469Z,19.23
2022-10-21T04:36:22.316Z,16.23
2022-10-21T04:38:50.727Z,23.67
2022-10-21T04:41:17.566Z,14.30
2022-10-21T04:43:47.846Z,16.33
2022-10-21T04:46:16.795Z,12.02
2022-10-21T04:48:46.563Z,15.27
2022-10-21T04:51:18.848Z,12.27
2022-10-21T04:54:15.113Z,12.40
2022-10-21T04:56:43.887Z,9.88
2022-10-21T04:59:13.476Z,14.13
2022-10-21T05:01:49.054Z,13.45
2022-10-21T05:04:22.240Z,12.55
2022-10-21T05:06:55.750Z,9.13
2022-10-21T05:09:23.999Z,10.40
2022-10-21T05:11:53.021Z,10.65
2022-10-21T05:14:24.034Z,10.65
2022-10-21T05:16:52.830Z,9.40
2022-10-21T05:19:20.296Z,11.80
2022-10-21T05:27:01.229Z,15.20
2022-10-21T05:32:16.389Z,11.60
2022-10-21T05:40:10.842Z,10.70
2022-10-21T05:50:33.263Z,7.13
2022-10-21T05:53:08.774Z,10.27
2022-10-21T06:06:34.292Z,7.90
2022-10-21T06:11:47.178Z,8.50
2022-10-21T06:19:37.110Z,11.05
2022-10-21T06:22:04.019Z,12.85
2022-10-21T06:29:57.747Z,11.07
2022-10-21T06:35:01.957Z,11.35
2022-10-21T06:37:30.276Z,14.80
2022-10-21T06:40:00.391Z,10.38
2022-10-21T06:45:10.448Z,7.55
2022-10-21T06:52:55.846Z,9.98
2022-10-21T06:58:12.026Z,9.57
2022-10-21T07:00:41.459Z,9.07
2022-10-21T07:08:54.080Z,11.05
2022-10-21T07:14:01.673Z,9.07
2022-10-21T07:24:37.530Z,10.18
2022-10-21T07:27:08.647Z,10.23
2022-10-21T07:29:39.409Z,9.63
2022-10-21T07:32:06.766Z,11.40
2022-10-21T07:34:33.973Z,10.10
2022-10-21T07:37:01.443Z,9.50
2022-10-21T07:44:54.973Z,9.10
2022-10-21T07:47:21.846Z,9.45
2022-10-21T07:52:32.709Z,13.57
2022-10-21T07:57:39.699Z,9.00
2022-10-21T08:00:07.492Z,9.38
2022-10-21T08:02:36.597Z,11.98
2022-10-21T08:05:08.405Z,11.00
2022-10-21T08:07:36.200Z,9.02
2022-10-21T08:10:05.347Z,7.28
2022-10-21T08:12:32.796Z,8.80
2022-10-21T08:17:43.271Z,9.32
2022-10-21T08:20:11.247Z,9.07
2022-10-21T08:22:41.082Z,6.57
2022-10-21T08:25:08.938Z,7.63
2022-10-21T08:27:36.234Z,8.23
2022-10-21T08:30:03.616Z,6.20
2022-10-21T08:38:01.096Z,12.05
2022-10-21T08:40:34.398Z,6.70
2022-10-21T08:43:09.740Z,6.70
2022-10-21T08:53:55.131Z,6.13
2022-10-21T08:58:56.144Z,10.18
2022-10-21T09:12:45.196Z,6.90
2022-10-21T09:23:42.918Z,6.55
2022-10-21T09:28:47.133Z,8.80
2022-10-21T09:31:20.202Z,7.25
2022-10-21T10:01:04.228Z,9.40
2022-10-21T10:14:30.387Z,11.50
2022-10-21T10:27:27.191Z,6.70
2022-10-21T10:29:57.028Z,9.20
2022-10-21T10:32:33.623Z,4.90
2022-10-21T10:56:55.259Z,5.00
2022-10-21T11:02:01.548Z,4.47
2022-10-21T11:04:51.948Z,6.93
2022-10-21T11:07:47.990Z,3.90
2022-10-21T11:18:40.045Z,6.20
2022-10-21T11:21:18.067Z,3.70
2022-10-21T11:37:37.496Z,5.77
2022-10-21T11:40:47.652Z,3.43
2022-10-21T11:43:32.713Z,4.93
2022-10-21T11:52:01.163Z,6.27
2022-10-21T11:55:00.902Z,6.77
2022-10-21T11:57:41.135Z,5.00
2022-10-21T12:08:19.598Z,6.00
2022-10-21T12:13:35.319Z,6.27
2022-10-21T12:16:27.439Z,5.47
2022-10-21T12:18:58.308Z,7.40
2022-10-21T12:21:28.798Z,8.57
2022-10-21T12:24:40.327Z,11.00
2022-10-21T12:27:18.778Z,6.00
2022-10-21T12:30:17.007Z,4.53
2022-10-21T12:33:08.021Z,7.50
2022-10-21T12:35:47.316Z,7.20
2022-10-21T12:38:24.597Z,11.80
2022-10-21T12:41:24.832Z,10.30
2022-10-21T12:44:03.146Z,6.37
2022-10-21T12:46:45.105Z,6.93
2022-10-21T12:49:27.290Z,7.90
2022-10-21T12:52:14.267Z,5.20
2022-10-21T12:55:01.014Z,5.73
2022-10-21T12:57:33.360Z,10.17
2022-10-21T13:03:09.124Z,6.23
2022-10-21T13:05:49.517Z,6.40
2022-10-21T13:08:29.096Z,7.63
2022-10-21T13:11:13.090Z,5.73
2022-10-21T13:13:47.613Z,7.93
2022-10-21T13:16:26.232Z,6.60
2022-10-21T13:19:04.664Z,6.17
2022-10-21T13:21:42.916Z,7.30
2022-10-21T13:24:23.872Z,7.83
2022-10-21T13:26:54.309Z,6.50
2022-10-21T13:29:39.847Z,6.90
2022-10-21T13:32:16.219Z,4.73
2022-10-21T13:34:59.490Z,7.23
2022-10-21T13:37:43.226Z,6.63
2022-10-21T13:40:20.061Z,5.97
2022-10-21T13:42:56.207Z,7.30
2022-10-21T13:45:33.403Z,6.03
2022-10-21T13:48:12.279Z,6.20
2022-10-21T13:50:42.746Z,5.73
2022-10-21T13:53:42.136Z,4.93
2022-10-21T13:56:25.166Z,9.67
2022-10-21T13:58:52.612Z,6.70
2022-10-21T14:01:25.839Z,7.47
2022-10-21T14:03:55.279Z,6.10
2022-10-21T14:06:32.475Z,15.20
2022-10-21T14:09:02.270Z,13.53
2022-10-21T14:11:36.503Z,6.30
2022-10-21T14:14:11.661Z,8.63
2022-10-21T14:16:42.624Z,7.37
2022-10-21T14:19:20.648Z,8.60
2022-10-21T14:21:53.198Z,7.37
2022-10-21T14:24:39.552Z,5.50
2022-10-21T14:27:10.685Z,8.97
2022-10-21T14:29:37.655Z,24.80
2022-10-21T14:32:05.319Z,13.03
2022-10-21T14:34:34.687Z,9.83
2022-10-21T14:37:11.869Z,6.40
2022-10-21T14:39:39.717Z,9.40
2022-10-21T14:42:13.222Z,11.27
2022-10-21T14:44:42.744Z,7.07
2022-10-21T14:47:25.361Z,7.20
2022-10-21T14:49:55.301Z,10.77
2022-10-21T14:52:27.104Z,9.60
2022-10-21T14:54:59.218Z,9.77
2022-10-21T14:57:32.670Z,13.33
2022-10-21T15:00:00.320Z,10.73
2022-10-21T15:02:34.867Z,14.90
2022-10-21T15:05:25.858Z,6.50
2022-10-21T15:10:36.386Z,13.43
2022-10-21T15:13:04.733Z,6.53
2022-10-21T15:15:49.679Z,10.00
2022-10-21T15:18:40.063Z,6.93
2022-10-21T15:21:25.505Z,9.13
2022-10-21T15:23:57.815Z,11.27
2022-10-21T15:26:29.859Z,15.80
2022-10-21T15:28:57.138Z,12.93
2022-10-21T15:31:29.591Z,16.90
2022-10-21T15:33:58.206Z,9.33
2022-10-21T15:36:25.705Z,21.80
2022-10-21T15:38:52.547Z,11.87
2022-10-21T15:41:25.846Z,11.73
2022-10-21T15:44:02.409Z,11.83
2022-10-21T15:46:33.255Z,12.00
2022-10-21T15:49:12.635Z,16.40
2022-10-21T15:51:39.311Z,11.77
2022-10-21T15:54:07.033Z,14.60
2022-10-21T15:56:37.556Z,14.13
2022-10-21T15:59:04.514Z,13.37
2022-10-21T16:01:32.003Z,12.10
2022-10-21T16:04:01.268Z,12.07
2022-10-21T16:06:28.036Z,14.68
2022-10-21T16:08:54.842Z,17.52
2022-10-21T16:11:34.725Z,11.43
2022-10-21T16:14:10.264Z,14.93
2022-10-21T16:16:41.694Z,15.52
2022-10-21T16:19:16.395Z,14.63
2022-10-21T16:21:47.481Z,17.25
2022-10-21T16:24:17.971Z,13.60
2022-10-21T16:26:47.506Z,12.23
2022-10-21T16:29:22.758Z,13.20
2022-10-21T16:31:50.804Z,11.07
2022-10-21T16:34:24.418Z,15.50
2022-10-21T16:36:55.245Z,15.63
2022-10-21T16:39:30.088Z,11.10
2022-10-21T16:42:08.144Z,12.25
2022-10-21T16:44:35.686Z,14.48
2022-10-21T16:47:03.805Z,15.02
2022-10-21T16:49:34.504Z,14.02
2022-10-21T16:52:03.311Z,13.70
2022-10-21T16:54:30.535Z,15.52
2022-10-21T16:57:02.237Z,13.23
2022-10-21T16:59:32.464Z,11.40
2022-10-21T17:02:03.509Z,15.63
2022-10-21T17:04:32.106Z,14.40
2022-10-21T17:07:01.061Z,16.35
2022-10-21T17:09:29.307Z,24.17
2022-10-21T17:11:58.130Z,19.70
2022-10-21T17:14:29.298Z,14.90
2022-10-21T17:16:59.429Z,19.60
2022-10-21T17:19:29.981Z,13.88
2022-10-21T17:21:57.043Z,23.17
2022-10-21T17:24:24.144Z,17.35
2022-10-21T17:26:53.275Z,16.35
2022-10-21T17:29:24.823Z,16.23
2022-10-21T17:31:53.298Z,17.60
2022-10-21T17:34:34.068Z,17.25
2022-10-21T17:37:02.210Z,14.30
2022-10-21T17:39:29.258Z,15.77
2022-10-21T17:41:59.241Z,17.20
2022-10-21T17:44:25.936Z,16.33
2022-10-21T17:46:54.771Z,16.33
2022-10-21T17:49:24.052Z,16.98
2022-10-21T17:51:51.402Z,18.35
2022-10-21T17:54:22.930Z,14.40
2022-10-21T17:56:53.352Z,20.63
2022-10-21T17:59:20.668Z,26.65
2022-10-21T18:01:49.266Z,17.65
2022-10-21T18:04:16.022Z,21.35
2022-10-21T18:06:44.963Z,15.25
2022-10-21T18:09:15.069Z,16.70
2022-10-21T18:11:44.695Z,17.65
2022-10-21T18:14:12.307Z,18.88
2022-10-21T18:16:39.214Z,18.85
2022-10-21T18:19:15.966Z,21.77
2022-10-21T18:21:42.657Z,22.75
2022-10-21T18:24:12.581Z,17.80
2022-10-21T18:26:40.007Z,19.70
2022-10-21T18:29:09.463Z,20.52
2022-10-21T18:31:37.537Z,17.30
2022-10-21T18:34:06.247Z,16.95
2022-10-21T18:36:33.612Z,16.05
2022-10-21T18:39:01.176Z,18.65
2022-10-21T18:41:29.007Z,17.30
2022-10-21T18:44:01.876Z,21.73
2022-10-21T18:46:30.277Z,17.67
2022-10-21T18:48:58.778Z,21.95
2022-10-21T18:51:25.906Z,18.10
2022-10-21T18:53:53.547Z,23.83
2022-10-21T18:56:22.589Z,20.27
2022-10-21T18:58:50.892Z,22.13
2022-10-21T19:01:19.340Z,22.05
2022-10-21T19:03:47.292Z,21.23
2022-10-21T19:06:15.035Z,19.25
2022-10-21T19:08:42.333Z,20.70
2022-10-21T19:11:09.435Z,24.00
2022-10-21T19:13:37.373Z,26.70
2022-10-21T19:16:04.608Z,22.83
2022-10-21T19:18:32.428Z,22.13
2022-10-21T19:20:59.356Z,22.92
2022-10-21T19:23:27.950Z,23.85
2022-10-21T19:25:55.042Z,20.52
2022-10-21T19:28:22.460Z,26.05
2022-10-21T19:30:49.285Z,22.15
2022-10-21T19:33:16.209Z,26.27
2022-10-21T19:35:45.533Z,28.42
2022-10-21T19:38:20.674Z,30.80
2022-10-21T19:40:59.512Z,25.73
2022-10-21T19:43:28.894Z,27.15
2022-10-21T19:48:38.211Z,32.72
2022-10-21T20:09:52.312Z,21.95
2022-10-21T20:36:37.104Z,27.08
2022-10-21T20:39:05.213Z,17.05
2022-10-21T20:41:37.510Z,24.25
2022-10-21T20:44:06.187Z,18.33
2022-10-21T20:46:36.483Z,24.05
2022-10-21T20:49:05.988Z,24.80
2022-10-21T20:51:33.372Z,21.92
2022-10-21T20:54:03.129Z,19.30
2022-10-21T20:56:32.665Z,20.63
2022-10-21T20:58:59.946Z,23.02
2022-10-21T21:28:08.973Z,22.67
2022-10-21T21:30:36.106Z,19.83
2022-10-21T21:33:02.810Z,19.27
2022-10-21T21:35:29.620Z,17.60
2022-10-21T21:46:25.921Z,21.35
2022-10-21T21:49:06.430Z,20.52
2022-10-21T21:57:00.678Z,17.42
2022-10-21T21:59:40.958Z,20.90
2022-10-21T22:07:34.336Z,16.75
2022-10-21T22:10:01.108Z,18.17
2022-10-21T22:12:28.572Z,19.20
2022-10-21T22:14:55.663Z,19.23
2022-10-21T22:17:22.747Z,22.33
2022-10-21T22:19:53.862Z,18.38
2022-10-21T22:22:21.241Z,21.33
2022-10-21T22:24:48.686Z,20.48
2022-10-21T22:27:16.097Z,20.63
2022-10-21T22:29:43.934Z,23.58
2022-10-21T22:32:12.900Z,17.63
2022-10-21T22:34:42.105Z,27.55
2022-10-21T22:37:11.611Z,16.15
2022-10-21T22:39:41.866Z,20.38
2022-10-21T22:42:11.241Z,19.20
2022-10-21T22:44:38.441Z,21.23
2022-10-21T22:47:11.345Z,19.17
2022-10-21T22:49:38.445Z,22.10
2022-10-21T22:52:12.792Z,18.85
2022-10-21T22:54:49.570Z,22.13
2022-10-21T22:57:17.429Z,18.23
2022-10-21T22:59:48.233Z,17.55
2022-10-21T23:02:20.188Z,20.17
2022-10-21T23:04:49.065Z,16.45
2022-10-21T23:07:16.331Z,20.17
2022-10-21T23:09:43.413Z,18.60
2022-10-21T23:27:57.457Z,17.10
2022-10-21T23:30:25.131Z,18.33
2022-10-21T23:32:54.030Z,19.02
2022-10-21T23:35:21.015Z,14.23
2022-10-21T23:37:49.154Z,16.10
2022-10-21T23:40:18.109Z,14.60
2022-10-21T23:42:45.426Z,13.45
2022-10-21T23:45:12.405Z,14.73
2022-10-21T23:47:40.893Z,19.35
2022-10-21T23:50:10.105Z,16.50
2022-10-21T23:52:40.335Z,19.48
2022-10-21T23:55:09.815Z,21.80
2022-10-21T23:57:39.259Z,17.05
